createdAt,value
2022-08-02T00:01:30.268Z,73.42
2022-08-02T00:03:47.286Z,73.10
2022-08-02T00:06:04.368Z,72.68
2022-08-02T00:08:21.416Z,72.56
2022-08-02T00:10:38.786Z,72.39
2022-08-02T00:12:56.037Z,73.86
2022-08-02T00:15:15.933Z,74.92
2022-08-02T00:17:33.613Z,73.74
2022-08-02T00:19:50.648Z,73.03
2022-08-02T00:22:08.239Z,73.53
2022-08-02T00:24:30.345Z,74.43
2022-08-02T00:26:47.967Z,75.39
2022-08-02T00:29:06.386Z,74.08
2022-08-02T00:31:23.420Z,75.28
2022-08-02T00:34:26.622Z,74.68
2022-08-02T00:36:18.273Z,74.35
2022-08-02T00:38:36.142Z,75.20
2022-08-02T00:40:58.045Z,75.82
2022-08-02T00:43:15.307Z,75.69
2022-08-02T00:46:02.356Z,75.65
2022-08-02T00:48:10.167Z,76.50
2022-08-02T00:50:27.610Z,76.31
2022-08-02T00:52:44.557Z,74.94
2022-08-02T00:55:02.124Z,75.75
2022-08-02T00:57:19.195Z,75.98
2022-08-02T00:59:36.489Z,75.07
2022-08-02T01:01:57.898Z,75.80
2022-08-02T01:04:15.263Z,75.58
2022-08-02T01:06:44.842Z,77.38
2022-08-02T01:09:01.859Z,76.05
2022-08-02T01:11:19.881Z,75.44
2022-08-02T01:13:36.819Z,76.03
2022-08-02T01:15:55.042Z,76.90
2022-08-02T01:18:12.977Z,76.71
2022-08-02T01:20:30.386Z,77.82
2022-08-02T01:23:03.222Z,77.24
2022-08-02T01:25:20.663Z,76.82
2022-08-02T01:27:38.901Z,77.51
2022-08-02T01:29:55.967Z,76.77
2022-08-02T01:32:13.379Z,77.40
2022-08-02T01:34:33.995Z,76.31
2022-08-02T01:36:52.350Z,78.06
2022-08-02T01:39:10.386Z,77.32
2022-08-02T01:41:27.663Z,78.15
2022-08-02T01:43:44.670Z,77.53
2022-08-02T01:46:01.972Z,78.62
2022-08-02T01:48:19.009Z,77.57
2022-08-02T01:50:36.298Z,78.15
2022-08-02T01:52:53.968Z,77.72
2022-08-02T01:55:18.531Z,78.44
2022-08-02T01:57:41.783Z,77.90
2022-08-02T01:59:59.173Z,78.49
2022-08-02T02:02:19.014Z,77.58
2022-08-02T02:04:37.477Z,77.75
2022-08-02T02:06:54.400Z,77.42
2022-08-02T02:09:11.397Z,78.93
2022-08-02T02:12:11.716Z,78.73
2022-08-02T02:14:06.668Z,77.85
2022-08-02T02:16:23.972Z,78.57
2022-08-02T02:18:40.983Z,78.52
2022-08-02T02:20:57.977Z,78.93
2022-08-02T02:23:14.926Z,78.70
2022-08-02T02:25:35.799Z,79.39
2022-08-02T02:27:53.851Z,78.54
2022-08-02T02:30:11.127Z,79.02
2022-08-02T02:32:28.077Z,79.44
2022-08-02T02:34:45.075Z,79.34
2022-08-02T02:37:03.115Z,78.89
2022-08-02T02:39:20.394Z,78.51
2022-08-02T02:41:37.641Z,78.71
2022-08-02T02:43:54.673Z,78.67
2022-08-02T02:46:11.664Z,78.41
2022-08-02T02:48:29.886Z,79.31
2022-08-02T02:50:47.110Z,79.10
2022-08-02T02:53:04.177Z,79.42
2022-08-02T02:55:22.438Z,79.46
2022-08-02T02:57:39.403Z,79.49
2022-08-02T02:59:56.432Z,79.87
2022-08-02T03:02:13.868Z,79.67
2022-08-02T03:04:55.753Z,80.39
2022-08-02T03:07:08.706Z,79.93
2022-08-02T03:09:26.688Z,80.35
2022-08-02T03:11:43.711Z,80.45
2022-08-02T03:14:02.004Z,80.45
2022-08-02T03:16:18.955Z,80.22
2022-08-02T03:18:35.904Z,79.86
2022-08-02T03:20:52.936Z,79.81
2022-08-02T03:23:10.247Z,79.66
2022-08-02T03:25:27.289Z,79.96
2022-08-02T03:27:44.514Z,79.97
2022-08-02T03:30:01.641Z,79.70
2022-08-02T03:32:18.855Z,79.68
2022-08-02T03:34:35.910Z,79.73
2022-08-02T03:36:52.845Z,79.94
2022-08-02T03:39:09.911Z,80.17
2022-08-02T03:41:27.124Z,80.38
2022-08-02T03:43:44.411Z,80.57
2022-08-02T03:46:01.672Z,80.84
2022-08-02T03:48:34.078Z,81.23
2022-08-02T03:50:54.825Z,80.76
2022-08-02T03:53:20.013Z,80.53
2022-08-02T03:55:37.360Z,80.06
2022-08-02T03:57:55.393Z,80.27
2022-08-02T04:00:12.963Z,80.58
2022-08-02T04:02:30.210Z,80.24
2022-08-02T04:04:47.526Z,80.56
2022-08-02T04:07:07.501Z,80.92
2022-08-02T04:09:25.012Z,80.53
2022-08-02T04:11:42.324Z,80.32
2022-08-02T04:13:59.578Z,80.37
2022-08-02T04:16:17.399Z,80.87
2022-08-02T04:18:35.746Z,80.72
2022-08-02T04:20:52.702Z,80.50
2022-08-02T04:23:11.060Z,80.67
2022-08-02T04:25:35.516Z,80.55
2022-08-02T04:28:17.333Z,81.10
2022-08-02T04:30:34.965Z,81.74
2022-08-02T04:32:53.008Z,81.42
2022-08-02T04:35:25.275Z,80.77
2022-08-02T04:38:08.971Z,81.94
2022-08-02T04:40:20.246Z,81.94
2022-08-02T04:42:37.477Z,80.98
2022-08-02T04:44:54.549Z,80.63
2022-08-02T04:47:12.573Z,81.14
2022-08-02T04:49:29.686Z,80.48
2022-08-02T04:51:46.974Z,80.91
2022-08-02T04:54:09.216Z,80.25
2022-08-02T04:56:27.416Z,80.60
2022-08-02T04:58:44.656Z,81.08
2022-08-02T05:01:01.806Z,81.11
2022-08-02T05:03:19.152Z,80.79
2022-08-02T05:05:36.001Z,81.27
2022-08-02T05:07:53.317Z,80.36
2022-08-02T05:10:10.642Z,80.58
2022-08-02T05:12:27.655Z,80.29
2022-08-02T05:14:44.904Z,81.10
2022-08-02T05:17:01.903Z,81.09
2022-08-02T05:19:18.883Z,79.74
2022-08-02T05:21:36.444Z,80.34
2022-08-02T05:23:53.403Z,80.63
2022-08-02T05:26:10.412Z,79.95
2022-08-02T05:28:27.437Z,79.69
2022-08-02T05:30:44.485Z,79.74
2022-08-02T05:33:01.555Z,79.64
2022-08-02T05:35:19.168Z,78.94
2022-08-02T05:37:36.420Z,79.43
2022-08-02T05:39:55.939Z,77.75
2022-08-02T05:42:13.560Z,78.49
2022-08-02T05:44:31.787Z,78.00
2022-08-02T05:46:50.424Z,78.22
2022-08-02T05:49:07.700Z,77.35
2022-08-02T05:51:25.069Z,77.35
2022-08-02T05:53:45.395Z,77.54
2022-08-02T05:56:05.403Z,77.09
2022-08-02T05:58:26.751Z,76.65
2022-08-02T06:00:44.481Z,76.95
2022-08-02T06:03:01.537Z,78.56
2022-08-02T06:05:18.509Z,76.97
2022-08-02T06:07:36.828Z,78.03
2022-08-02T06:09:53.914Z,76.32
2022-08-02T06:12:11.405Z,76.95
2022-08-02T06:14:30.611Z,75.91
2022-08-02T06:16:47.919Z,75.27
2022-08-02T06:19:04.941Z,75.96
2022-08-02T06:22:33.203Z,74.64
2022-08-02T06:23:59.649Z,75.70
2022-08-02T06:26:16.845Z,75.51
2022-08-02T06:28:34.920Z,73.69
2022-08-02T06:30:51.954Z,71.45
2022-08-02T06:33:10.252Z,72.08
2022-08-02T06:35:27.298Z,70.72
2022-08-02T06:37:44.667Z,71.38
2022-08-02T06:40:02.054Z,70.57
2022-08-02T06:42:26.965Z,71.66
2022-08-02T06:44:49.939Z,70.71
2022-08-02T06:47:10.871Z,71.51
2022-08-02T06:49:52.569Z,70.41
2022-08-02T06:52:06.333Z,69.96
2022-08-02T06:54:23.307Z,69.64
2022-08-02T06:56:40.474Z,69.47
2022-08-02T06:59:02.136Z,69.38
2022-08-02T07:01:22.640Z,68.56
2022-08-02T07:03:41.833Z,68.59
2022-08-02T07:05:58.890Z,68.10
2022-08-02T07:08:16.294Z,67.03
2022-08-02T07:10:33.646Z,65.83
2022-08-02T07:12:50.640Z,66.29
2022-08-02T07:15:07.664Z,66.29
2022-08-02T07:17:24.942Z,66.71
2022-08-02T07:19:42.241Z,66.34
2022-08-02T07:22:01.728Z,65.28
2022-08-02T07:24:19.098Z,65.60
2022-08-02T07:26:49.637Z,64.40
2022-08-02T07:29:13.055Z,63.56
2022-08-02T07:31:30.325Z,63.34
2022-08-02T07:33:47.412Z,63.21
2022-08-02T07:36:04.705Z,62.37
2022-08-02T07:38:22.533Z,62.37
2022-08-02T07:40:40.046Z,61.05
2022-08-02T07:43:03.887Z,61.16
2022-08-02T07:45:21.567Z,60.60
2022-08-02T07:47:43.268Z,59.84
2022-08-02T07:50:02.939Z,59.86
2022-08-02T07:52:20.370Z,59.66
2022-08-02T07:54:37.443Z,58.80
2022-08-02T07:56:58.336Z,58.47
2022-08-02T07:59:17.037Z,57.72
2022-08-02T08:01:34.354Z,57.55
2022-08-02T08:03:53.689Z,56.78
2022-08-02T08:06:13.951Z,56.25
2022-08-02T08:08:32.019Z,55.86
2022-08-02T08:10:50.168Z,54.07
2022-08-02T08:13:08.243Z,54.56
2022-08-02T08:15:25.563Z,53.85
2022-08-02T08:17:42.581Z,50.55
2022-08-02T08:20:00.095Z,50.40
2022-08-02T08:22:18.142Z,49.91
2022-08-02T08:24:35.060Z,49.64
2022-08-02T08:26:52.238Z,49.19
2022-08-02T08:29:12.711Z,47.62
2022-08-02T08:31:30.369Z,48.19
2022-08-02T08:33:47.399Z,48.08
2022-08-02T08:36:06.821Z,48.47
2022-08-02T08:38:24.084Z,45.55
2022-08-02T08:40:43.381Z,46.34
2022-08-02T08:43:00.498Z,45.97
2022-08-02T08:45:17.769Z,45.99
2022-08-02T08:47:35.899Z,44.41
2022-08-02T08:49:53.512Z,45.01
2022-08-02T08:52:11.823Z,45.17
2022-08-02T08:54:29.324Z,43.48
2022-08-02T08:56:47.351Z,43.69
2022-08-02T08:59:05.145Z,44.48
2022-08-02T09:01:22.437Z,42.94
2022-08-02T09:03:39.568Z,43.96
2022-08-02T09:05:57.848Z,43.66
2022-08-02T09:08:17.059Z,43.29
2022-08-02T09:10:34.229Z,44.06
2022-08-02T09:12:51.168Z,43.82
2022-08-02T09:15:08.962Z,43.96
2022-08-02T09:17:27.981Z,43.61
2022-08-02T09:19:46.534Z,43.32
2022-08-02T09:22:04.179Z,43.08
2022-08-02T09:24:21.412Z,43.60
2022-08-02T09:26:38.763Z,42.07
2022-08-02T09:28:55.990Z,43.15
2022-08-02T09:31:14.281Z,42.58
2022-08-02T09:33:32.549Z,42.78
2022-08-02T09:36:07.147Z,41.32
2022-08-02T09:38:25.978Z,41.55
2022-08-02T09:40:43.438Z,42.15
2022-08-02T09:43:00.872Z,41.21
2022-08-02T09:45:17.913Z,41.84
2022-08-02T09:47:37.562Z,41.79
2022-08-02T09:49:54.700Z,41.33
2022-08-02T09:52:12.659Z,41.19
2022-08-02T09:54:30.750Z,39.78
2022-08-02T09:56:48.682Z,41.42
2022-08-02T09:59:06.138Z,40.43
2022-08-02T10:01:26.637Z,42.55
2022-08-02T10:03:54.707Z,42.37
2022-08-02T10:06:11.931Z,42.76
2022-08-02T10:08:29.252Z,42.14
2022-08-02T10:10:49.625Z,43.35
2022-08-02T10:13:08.725Z,41.73
2022-08-02T10:15:29.028Z,42.66
2022-08-02T10:17:45.968Z,43.17
2022-08-02T10:20:05.120Z,43.32
2022-08-02T10:22:22.589Z,43.04
2022-08-02T10:24:39.617Z,43.00
2022-08-02T10:27:04.796Z,43.47
2022-08-02T10:29:21.854Z,44.09
2022-08-02T10:31:38.921Z,43.24
2022-08-02T10:33:55.990Z,43.18
2022-08-02T10:36:13.019Z,42.40
2022-08-02T10:38:30.378Z,42.45
2022-08-02T10:40:47.344Z,41.38
2022-08-02T10:43:04.299Z,40.75
2022-08-02T10:45:21.450Z,39.71
2022-08-02T10:47:38.486Z,38.83
2022-08-02T10:49:55.461Z,39.19
2022-08-02T10:52:12.752Z,38.37
2022-08-02T10:54:30.202Z,38.56
2022-08-02T10:56:47.163Z,37.86
2022-08-02T10:59:04.464Z,37.81
2022-08-02T11:01:21.486Z,36.82
2022-08-02T11:03:40.108Z,36.96
2022-08-02T11:05:57.828Z,36.98
2022-08-02T11:08:15.905Z,37.17
2022-08-02T11:10:33.446Z,37.77
2022-08-02T11:12:53.728Z,38.52
2022-08-02T11:15:10.684Z,38.34
2022-08-02T11:17:27.715Z,37.95
2022-08-02T11:19:44.769Z,37.78
2022-08-02T11:22:02.356Z,34.47
2022-08-02T11:24:20.624Z,36.70
2022-08-02T11:26:40.415Z,35.60
2022-08-02T11:28:58.459Z,34.78
2022-08-02T11:31:16.906Z,35.41
2022-08-02T11:33:33.975Z,35.09
2022-08-02T11:35:53.280Z,34.70
2022-08-02T11:38:10.314Z,33.51
2022-08-02T11:40:32.500Z,33.89
2022-08-02T11:42:52.472Z,33.56
2022-08-02T11:45:10.606Z,34.24
2022-08-02T11:47:39.172Z,33.83
2022-08-02T11:49:56.519Z,33.03
2022-08-02T11:52:14.162Z,32.78
2022-08-02T11:54:35.420Z,34.77
2022-08-02T11:56:54.249Z,34.61
2022-08-02T11:59:14.438Z,34.38
2022-08-02T12:01:35.249Z,35.58
2022-08-02T12:04:02.589Z,36.07
2022-08-02T12:06:20.858Z,35.71
2022-08-02T12:08:38.606Z,35.30
2022-08-02T12:10:56.329Z,35.68
2022-08-02T12:13:14.588Z,34.24
2022-08-02T12:15:31.574Z,34.45
2022-08-02T12:17:49.497Z,35.47
2022-08-02T12:20:06.521Z,35.50
2022-08-02T12:22:24.467Z,35.31
2022-08-02T12:24:45.984Z,34.71
2022-08-02T12:27:04.042Z,33.57
2022-08-02T12:29:56.026Z,33.60
2022-08-02T12:31:58.265Z,33.92
2022-08-02T12:34:16.372Z,33.37
2022-08-02T12:36:33.399Z,33.01
2022-08-02T12:38:50.638Z,32.52
2022-08-02T12:41:30.861Z,33.70
2022-08-02T12:43:44.986Z,34.11
2022-08-02T12:46:02.041Z,33.92
2022-08-02T12:48:19.339Z,33.50
2022-08-02T12:50:39.639Z,32.58
2022-08-02T12:52:56.894Z,31.95
2022-08-02T12:55:14.136Z,32.58
2022-08-02T12:57:32.581Z,34.31
2022-08-02T12:59:49.663Z,32.66
2022-08-02T13:02:07.740Z,33.27
2022-08-02T13:04:25.104Z,33.08
2022-08-02T13:06:45.122Z,33.75
2022-08-02T13:09:04.467Z,34.15
2022-08-02T13:11:21.389Z,33.36
2022-08-02T13:13:38.434Z,34.69
2022-08-02T13:15:55.516Z,34.83
2022-08-02T13:18:16.108Z,33.32
2022-08-02T13:20:34.140Z,32.40
2022-08-02T13:22:53.549Z,33.20
2022-08-02T13:25:10.748Z,33.03
2022-08-02T13:27:30.581Z,32.13
2022-08-02T13:29:47.876Z,33.02
2022-08-02T13:32:04.903Z,33.17
2022-08-02T13:34:21.923Z,33.26
2022-08-02T13:36:40.811Z,32.93
2022-08-02T13:38:57.858Z,33.08
2022-08-02T13:41:14.922Z,33.03
2022-08-02T13:43:52.686Z,33.56
2022-08-02T13:46:10.443Z,32.42
2022-08-02T13:48:27.473Z,33.52
2022-08-02T13:50:44.580Z,32.42
2022-08-02T13:53:03.936Z,32.75
2022-08-02T13:55:20.914Z,33.60
2022-08-02T13:57:37.972Z,32.94
2022-08-02T13:59:59.178Z,32.62
2022-08-02T14:02:17.416Z,32.98
2022-08-02T14:04:35.809Z,32.49
2022-08-02T14:06:52.916Z,32.08
2022-08-02T14:09:15.519Z,32.26
2022-08-02T14:11:34.289Z,32.53
2022-08-02T14:13:51.225Z,34.87
2022-08-02T14:16:08.450Z,31.76
2022-08-02T14:18:25.785Z,32.28
2022-08-02T14:20:43.019Z,33.43
2022-08-02T14:23:00.048Z,32.89
2022-08-02T14:25:17.366Z,32.05
2022-08-02T14:27:39.431Z,32.57
2022-08-02T14:29:57.747Z,32.50
2022-08-02T14:32:15.377Z,32.30
2022-08-02T14:34:32.980Z,34.25
2022-08-02T14:36:53.692Z,33.46
2022-08-02T14:39:11.079Z,33.59
2022-08-02T14:41:29.398Z,32.31
2022-08-02T14:43:46.432Z,34.07
2022-08-02T14:46:03.833Z,34.81
2022-08-02T14:48:20.825Z,34.22
2022-08-02T14:50:38.043Z,33.78
2022-08-02T14:52:55.992Z,33.24
2022-08-02T14:55:17.158Z,34.32
2022-08-02T14:57:34.594Z,34.10
2022-08-02T14:59:51.872Z,34.58
2022-08-02T15:02:13.694Z,33.45
2022-08-02T15:04:39.178Z,33.92
2022-08-02T15:07:00.541Z,35.25
2022-08-02T15:09:17.772Z,33.88
2022-08-02T15:11:47.594Z,33.92
2022-08-02T15:14:05.480Z,34.77
2022-08-02T15:16:32.757Z,34.13
2022-08-02T15:18:59.676Z,33.12
2022-08-02T15:21:40.209Z,34.48
2022-08-02T15:23:53.520Z,33.22
2022-08-02T15:26:10.527Z,34.51
2022-08-02T15:28:27.789Z,34.19
2022-08-02T15:30:44.764Z,34.17
2022-08-02T15:33:01.795Z,34.68
2022-08-02T15:35:19.089Z,35.64
2022-08-02T15:37:40.976Z,35.28
2022-08-02T15:39:58.373Z,35.61
2022-08-02T15:42:17.070Z,36.27
2022-08-02T15:44:34.380Z,36.40
2022-08-02T15:46:51.623Z,35.37
2022-08-02T15:49:11.132Z,36.04
2022-08-02T15:51:28.179Z,35.06
2022-08-02T15:53:45.157Z,34.94
2022-08-02T15:56:12.811Z,36.09
2022-08-02T15:58:30.107Z,35.82
2022-08-02T16:00:48.034Z,36.14
2022-08-02T16:03:04.963Z,35.88
2022-08-02T16:05:22.006Z,35.46
2022-08-02T16:07:41.191Z,35.58
2022-08-02T16:09:58.585Z,35.44
2022-08-02T16:12:16.183Z,35.16
2022-08-02T16:14:34.230Z,35.22
2022-08-02T16:16:51.264Z,35.10
2022-08-02T16:19:46.973Z,35.04
2022-08-02T16:21:46.863Z,35.23
2022-08-02T16:24:04.897Z,35.30
2022-08-02T16:26:22.141Z,36.25
2022-08-02T16:28:40.438Z,35.59
2022-08-02T16:31:10.438Z,35.37
2022-08-02T16:33:28.685Z,35.76
2022-08-02T16:35:47.829Z,36.42
2022-08-02T16:38:05.301Z,35.99
2022-08-02T16:40:22.346Z,35.94
2022-08-02T16:42:39.263Z,36.33
2022-08-02T16:45:07.473Z,36.37
2022-08-02T16:47:37.003Z,36.18
2022-08-02T16:50:05.021Z,36.33
2022-08-02T16:52:26.785Z,36.97
2022-08-02T16:54:44.036Z,36.93
2022-08-02T16:57:00.958Z,36.65
2022-08-02T16:59:20.772Z,37.61
2022-08-02T17:02:11.984Z,37.26
2022-08-02T17:04:21.064Z,37.26
2022-08-02T17:06:39.830Z,36.99
2022-08-02T17:09:04.992Z,36.97
2022-08-02T17:11:23.848Z,37.24
2022-08-02T17:13:41.857Z,37.78
2022-08-02T17:16:16.001Z,37.29
2022-08-02T17:18:42.648Z,38.18
2022-08-02T17:20:59.933Z,38.35
2022-08-02T17:23:18.173Z,37.37
2022-08-02T17:25:41.796Z,37.65
2022-08-02T17:27:59.356Z,37.32
2022-08-02T17:30:16.659Z,37.12
2022-08-02T17:32:45.410Z,37.35
2022-08-02T17:35:21.723Z,37.35
2022-08-02T17:37:41.748Z,37.54
2022-08-02T17:39:58.964Z,37.85
2022-08-02T17:42:19.690Z,38.65
2022-08-02T17:44:38.485Z,38.52
2022-08-02T17:46:55.659Z,38.76
2022-08-02T17:49:12.807Z,39.19
2022-08-02T17:52:14.742Z,39.75
2022-08-02T17:54:07.342Z,40.30
2022-08-02T17:56:26.824Z,40.50
2022-08-02T17:58:53.932Z,40.65
2022-08-02T18:01:23.766Z,40.37
2022-08-02T18:03:42.949Z,40.76
2022-08-02T18:06:00.416Z,40.42
2022-08-02T18:08:18.462Z,41.62
2022-08-02T18:10:38.993Z,42.61
2022-08-02T18:12:56.035Z,43.70
2022-08-02T18:15:14.729Z,43.32
2022-08-02T18:17:31.925Z,42.88
2022-08-02T18:19:57.485Z,42.90
2022-08-02T18:22:20.446Z,43.60
2022-08-02T18:24:42.330Z,43.34
2022-08-02T18:27:02.198Z,44.61
2022-08-02T18:29:19.263Z,45.33
2022-08-02T18:31:39.469Z,45.76
2022-08-02T18:34:02.096Z,45.43
2022-08-02T18:36:24.635Z,45.69
2022-08-02T18:38:42.648Z,46.28
2022-08-02T18:41:03.038Z,46.70
2022-08-02T18:43:25.651Z,47.02
2022-08-02T18:46:06.607Z,47.73
2022-08-02T18:48:33.285Z,48.61
2022-08-02T18:50:50.382Z,49.02
2022-08-02T18:53:07.408Z,48.80
2022-08-02T18:55:59.612Z,49.56
2022-08-02T18:58:19.835Z,49.06
2022-08-02T19:00:37.469Z,50.25
2022-08-02T19:02:54.920Z,49.78
2022-08-02T19:05:13.012Z,50.06
2022-08-02T19:07:49.894Z,49.97
2022-08-02T19:10:08.543Z,50.56
2022-08-02T19:12:28.465Z,51.64
2022-08-02T19:14:45.890Z,51.84
2022-08-02T19:17:15.707Z,51.84
2022-08-02T19:19:42.655Z,51.15
2022-08-02T19:22:26.954Z,51.49
2022-08-02T19:24:37.723Z,52.01
2022-08-02T19:26:59.900Z,52.65
2022-08-02T19:29:42.612Z,52.57
2022-08-02T19:32:06.486Z,53.02
2022-08-02T19:34:43.524Z,53.48
2022-08-02T19:37:01.000Z,54.30
2022-08-02T19:39:19.784Z,54.19
2022-08-02T19:44:24.133Z,54.62
2022-08-02T19:46:49.195Z,55.01
2022-08-02T19:49:20.337Z,55.25
2022-08-02T19:51:54.998Z,54.86
2022-08-02T19:54:12.882Z,55.31
2022-08-02T19:56:30.273Z,55.35
2022-08-02T19:58:48.443Z,56.34
2022-08-02T20:01:05.433Z,56.39
2022-08-02T20:03:51.969Z,56.16
2022-08-02T20:06:00.130Z,55.93
2022-08-02T20:08:31.557Z,55.70
2022-08-02T20:10:52.955Z,57.76
2022-08-02T20:13:10.324Z,56.90
2022-08-02T20:15:56.586Z,57.23
2022-08-02T20:18:05.667Z,56.82
2022-08-02T20:20:22.986Z,56.92
2022-08-02T20:22:47.825Z,57.68
2022-08-02T20:25:09.454Z,58.10
2022-08-02T20:27:30.145Z,58.87
2022-08-02T20:29:48.656Z,58.73
2022-08-02T20:32:08.017Z,59.01
2022-08-02T20:34:26.405Z,58.48
2022-08-02T20:36:43.656Z,58.09
2022-08-02T20:39:10.899Z,59.53
2022-08-02T20:41:36.875Z,58.10
2022-08-02T20:44:03.173Z,58.22
2022-08-02T20:46:21.103Z,59.48
2022-08-02T20:48:40.521Z,58.99
2022-08-02T20:50:59.146Z,59.19
2022-08-02T20:53:23.486Z,60.67
2022-08-02T20:55:44.142Z,59.44
2022-08-02T20:58:02.521Z,60.77
2022-08-02T21:00:20.669Z,60.84
2022-08-02T21:02:38.064Z,61.68
2022-08-02T21:04:57.167Z,60.03
2022-08-02T21:07:17.922Z,61.66
2022-08-02T21:09:52.879Z,60.83
2022-08-02T21:12:12.500Z,60.82
2022-08-02T21:14:30.117Z,60.75
2022-08-02T21:16:47.176Z,61.38
2022-08-02T21:19:08.114Z,61.33
2022-08-02T21:21:27.127Z,59.89
2022-08-02T21:23:48.893Z,60.50
2022-08-02T21:26:11.587Z,61.35
2022-08-02T21:28:43.328Z,61.09
2022-08-02T21:31:00.937Z,62.00
2022-08-02T21:33:23.653Z,62.18
2022-08-02T21:35:41.143Z,62.05
2022-08-02T21:37:58.446Z,61.97
2022-08-02T21:40:15.444Z,61.96
2022-08-02T21:42:32.398Z,62.51
2022-08-02T21:44:50.728Z,62.51
2022-08-02T21:47:09.183Z,62.49
2022-08-02T21:49:40.650Z,62.23
2022-08-02T21:52:03.072Z,63.01
2022-08-02T21:54:21.296Z,63.18
2022-08-02T21:56:38.634Z,62.92
2022-08-02T21:58:57.360Z,63.44
2022-08-02T22:01:14.421Z,63.63
2022-08-02T22:03:31.507Z,63.49
2022-08-02T22:05:50.239Z,63.62
2022-08-02T22:08:08.072Z,63.76
2022-08-02T22:10:27.639Z,63.92
2022-08-02T22:12:44.939Z,63.87
2022-08-02T22:15:02.388Z,64.06
2022-08-02T22:17:20.809Z,64.47
2022-08-02T22:19:38.256Z,64.46
2022-08-02T22:21:56.363Z,64.69
2022-08-02T22:24:19.588Z,65.67
2022-08-02T22:26:47.311Z,65.55
2022-08-02T22:29:05.286Z,65.25
2022-08-02T22:31:40.470Z,65.20
2022-08-02T22:34:01.693Z,65.14
2022-08-02T22:36:20.829Z,65.86
2022-08-02T22:38:45.390Z,66.35
2022-08-02T22:41:03.617Z,65.91
2022-08-02T22:43:23.084Z,66.53
2022-08-02T22:45:40.840Z,65.79
2022-08-02T22:47:58.291Z,65.53
2022-08-02T22:50:15.846Z,66.55
2022-08-02T22:52:33.116Z,65.53
2022-08-02T22:54:50.950Z,66.19
2022-08-02T22:57:11.521Z,65.81
2022-08-02T22:58:52.679Z,54.56
2022-08-02T22:59:38.827Z,65.80
2022-08-02T23:01:56.660Z,66.76
2022-08-02T23:04:13.826Z,66.17
2022-08-02T23:06:31.035Z,65.92
2022-08-02T23:08:49.057Z,65.98
2022-08-02T23:11:06.041Z,66.81
2022-08-02T23:13:28.289Z,68.30
2022-08-02T23:15:45.856Z,67.23
2022-08-02T23:18:02.927Z,67.06
2022-08-02T23:20:20.210Z,68.61
2022-08-02T23:22:37.238Z,68.52
2022-08-02T23:24:54.277Z,67.03
2022-08-02T23:27:11.320Z,67.95
2022-08-02T23:29:28.696Z,66.81
2022-08-02T23:31:45.777Z,66.88
2022-08-02T23:34:04.925Z,67.52
